sensor_id;sensor_type;location;lat;lon;timestamp;P1;durP1;ratioP1;P2;durP2;ratioP2
20101;SDS011;10210;52.284;9.892;2022-08-25T00:01:54;12.70;;;4.30;;
20101;SDS011;10210;52.284;9.892;2022-08-25T00:04:27;9.53;;;3.63;;
20101;SDS011;10210;52.284;9.892;2022-08-25T00:06:53;11.20;;;3.80;;
20101;SDS011;10210;52.284;9.892;2022-08-25T00:09:20;9.70;;;3.83;;
20101;SDS011;10210;52.284;9.892;2022-08-25T00:11:49;10.43;;;4.10;;
20101;SDS011;10210;52.284;9.892;2022-08-25T00:14:19;11.13;;;4.10;;
20101;SDS011;10210;52.284;9.892;2022-08-25T00:16:49;13.17;;;4.10;;
20101;SDS011;10210;52.284;9.892;2022-08-25T00:19:18;11.00;;;4.13;;
20101;SDS011;10210;52.284;9.892;2022-08-25T00:21:51;10.70;;;3.93;;
20101;SDS011;10210;52.284;9.892;2022-08-25T00:24:18;11.33;;;4.13;;
20101;SDS011;10210;52.284;9.892;2022-08-25T00:26:46;11.70;;;4.50;;
20101;SDS011;10210;52.284;9.892;2022-08-25T00:29:15;11.27;;;3.77;;
20101;SDS011;10210;52.284;9.892;2022-08-25T00:31:42;11.50;;;4.57;;
20101;SDS011;10210;52.284;9.892;2022-08-25T00:34:13;10.13;;;3.60;;
20101;SDS011;10210;52.284;9.892;2022-08-25T00:36:45;12.07;;;4.13;;
20101;SDS011;10210;52.284;9.892;2022-08-25T00:39:11;11.67;;;4.00;;
20101;SDS011;10210;52.284;9.892;2022-08-25T00:41:38;10.27;;;4.03;;
20101;SDS011;10210;52.284;9.892;2022-08-25T00:44:07;10.53;;;4.20;;
20101;SDS011;10210;52.284;9.892;2022-08-25T00:46:41;11.33;;;4.43;;
20101;SDS011;10210;52.284;9.892;2022-08-25T00:49:23;11.13;;;3.87;;
20101;SDS011;10210;52.284;9.892;2022-08-25T00:52:05;9.23;;;3.67;;
20101;SDS011;10210;52.284;9.892;2022-08-25T00:54:38;11.27;;;4.13;;
20101;SDS011;10210;52.284;9.892;2022-08-25T00:57:11;14.73;;;4.60;;
20101;SDS011;10210;52.284;9.892;2022-08-25T00:59:42;11.83;;;4.57;;
20101;SDS011;10210;52.284;9.892;2022-08-25T01:02:08;12.33;;;4.60;;
20101;SDS011;10210;52.284;9.892;2022-08-25T01:04:35;11.60;;;4.37;;
20101;SDS011;10210;52.284;9.892;2022-08-25T01:07:01;10.87;;;4.20;;
20101;SDS011;10210;52.284;9.892;2022-08-25T01:09:28;10.90;;;4.17;;
20101;SDS011;10210;52.284;9.892;2022-08-25T01:11:56;10.90;;;4.17;;
20101;SDS011;10210;52.284;9.892;2022-08-25T01:14:23;9.33;;;3.97;;
20101;SDS011;10210;52.284;9.892;2022-08-25T01:16:52;14.00;;;4.50;;
20101;SDS011;10210;52.284;9.892;2022-08-25T01:19:19;11.73;;;4.53;;
20101;SDS011;10210;52.284;9.892;2022-08-25T01:21:49;12.90;;;4.73;;
20101;SDS011;10210;52.284;9.892;2022-08-25T01:27:11;11.23;;;4.50;;
20101;SDS011;10210;52.284;9.892;2022-08-25T01:29:37;11.47;;;4.63;;
20101;SDS011;10210;52.284;9.892;2022-08-25T01:32:05;13.17;;;5.13;;
20101;SDS011;10210;52.284;9.892;2022-08-25T01:34:35;11.97;;;5.00;;
20101;SDS011;10210;52.284;9.892;2022-08-25T01:37:04;10.73;;;4.40;;
20101;SDS011;10210;52.284;9.892;2022-08-25T01:39:32;14.27;;;4.93;;
20101;SDS011;10210;52.284;9.892;2022-08-25T01:42:07;12.30;;;5.00;;
20101;SDS011;10210;52.284;9.892;2022-08-25T01:44:38;15.50;;;5.30;;
20101;SDS011;10210;52.284;9.892;2022-08-25T01:47:08;13.17;;;5.60;;
20101;SDS011;10210;52.284;9.892;2022-08-25T01:49:35;13.13;;;5.20;;
20101;SDS011;10210;52.284;9.892;2022-08-25T01:52:04;13.00;;;5.43;;
20101;SDS011;10210;52.284;9.892;2022-08-25T01:54:50;14.77;;;5.53;;
20101;SDS011;10210;52.284;9.892;2022-08-25T01:57:17;13.57;;;5.20;;
20101;SDS011;10210;52.284;9.892;2022-08-25T01:59:43;14.53;;;5.37;;
20101;SDS011;10210;52.284;9.892;2022-08-25T02:02:09;11.37;;;4.77;;
20101;SDS011;10210;52.284;9.892;2022-08-25T02:04:35;13.37;;;5.40;;
20101;SDS011;10210;52.284;9.892;2022-08-25T02:07:02;12.43;;;5.20;;
20101;SDS011;10210;52.284;9.892;2022-08-25T02:09:32;14.37;;;5.77;;
20101;SDS011;10210;52.284;9.892;2022-08-25T02:11:58;13.90;;;5.60;;
20101;SDS011;10210;52.284;9.892;2022-08-25T02:14:24;12.93;;;5.50;;
20101;SDS011;10210;52.284;9.892;2022-08-25T02:16:51;13.67;;;5.47;;
20101;SDS011;10210;52.284;9.892;2022-08-25T02:19:19;13.13;;;5.77;;
20101;SDS011;10210;52.284;9.892;2022-08-25T02:21:48;14.40;;;6.20;;
20101;SDS011;10210;52.284;9.892;2022-08-25T02:24:14;13.60;;;5.83;;
20101;SDS011;10210;52.284;9.892;2022-08-25T02:26:42;13.00;;;5.67;;
20101;SDS011;10210;52.284;9.892;2022-08-25T02:29:08;12.73;;;5.80;;
20101;SDS011;10210;52.284;9.892;2022-08-25T02:31:34;14.67;;;6.00;;
20101;SDS011;10210;52.284;9.892;2022-08-25T02:34:01;14.77;;;6.03;;
20101;SDS011;10210;52.284;9.892;2022-08-25T02:36:28;13.73;;;5.70;;
20101;SDS011;10210;52.284;9.892;2022-08-25T02:38:54;13.93;;;5.57;;
20101;SDS011;10210;52.284;9.892;2022-08-25T02:41:20;14.40;;;6.20;;
20101;SDS011;10210;52.284;9.892;2022-08-25T02:43:48;14.37;;;6.30;;
20101;SDS011;10210;52.284;9.892;2022-08-25T02:46:16;15.50;;;5.97;;
20101;SDS011;10210;52.284;9.892;2022-08-25T02:48:44;15.07;;;6.73;;
20101;SDS011;10210;52.284;9.892;2022-08-25T02:51:11;14.20;;;6.33;;
20101;SDS011;10210;52.284;9.892;2022-08-25T02:53:38;15.90;;;6.70;;
20101;SDS011;10210;52.284;9.892;2022-08-25T02:56:06;14.63;;;6.30;;
20101;SDS011;10210;52.284;9.892;2022-08-25T02:58:34;14.13;;;6.17;;
20101;SDS011;10210;52.284;9.892;2022-08-25T03:01:02;12.83;;;5.33;;
20101;SDS011;10210;52.284;9.892;2022-08-25T03:03:29;14.70;;;5.93;;
20101;SDS011;10210;52.284;9.892;2022-08-25T03:05:55;13.40;;;5.90;;
20101;SDS011;10210;52.284;9.892;2022-08-25T03:08:21;13.33;;;5.73;;
20101;SDS011;10210;52.284;9.892;2022-08-25T03:10:48;13.60;;;6.20;;
20101;SDS011;10210;52.284;9.892;2022-08-25T03:13:13;15.73;;;7.03;;
20101;SDS011;10210;52.284;9.892;2022-08-25T03:15:40;14.40;;;6.33;;
20101;SDS011;10210;52.284;9.892;2022-08-25T03:18:06;13.53;;;5.17;;
20101;SDS011;10210;52.284;9.892;2022-08-25T03:20:32;13.37;;;5.47;;
20101;SDS011;10210;52.284;9.892;2022-08-25T03:22:59;13.10;;;5.87;;
20101;SDS011;10210;52.284;9.892;2022-08-25T03:25:27;12.67;;;5.53;;
20101;SDS011;10210;52.284;9.892;2022-08-25T03:28:12;14.33;;;6.10;;
20101;SDS011;10210;52.284;9.892;2022-08-25T03:30:38;14.23;;;5.87;;
20101;SDS011;10210;52.284;9.892;2022-08-25T03:33:05;13.47;;;5.73;;
20101;SDS011;10210;52.284;9.892;2022-08-25T03:35:31;15.17;;;6.17;;
20101;SDS011;10210;52.284;9.892;2022-08-25T03:37:57;14.27;;;6.17;;
20101;SDS011;10210;52.284;9.892;2022-08-25T03:40:24;12.57;;;6.07;;
20101;SDS011;10210;52.284;9.892;2022-08-25T03:42:52;12.80;;;5.60;;
20101;SDS011;10210;52.284;9.892;2022-08-25T03:45:19;12.50;;;5.70;;
20101;SDS011;10210;52.284;9.892;2022-08-25T03:47:46;17.03;;;6.20;;
20101;SDS011;10210;52.284;9.892;2022-08-25T03:50:14;13.23;;;5.73;;
20101;SDS011;10210;52.284;9.892;2022-08-25T03:52:42;12.63;;;5.47;;
20101;SDS011;10210;52.284;9.892;2022-08-25T03:55:09;13.57;;;6.10;;
20101;SDS011;10210;52.284;9.892;2022-08-25T03:57:37;13.60;;;6.00;;
20101;SDS011;10210;52.284;9.892;2022-08-25T04:00:04;12.63;;;5.03;;
20101;SDS011;10210;52.284;9.892;2022-08-25T04:02:33;13.63;;;5.47;;
20101;SDS011;10210;52.284;9.892;2022-08-25T04:04:59;37.87;;;7.13;;
20101;SDS011;10210;52.284;9.892;2022-08-25T04:07:24;32.80;;;7.17;;
20101;SDS011;10210;52.284;9.892;2022-08-25T04:09:52;21.23;;;6.67;;
20101;SDS011;10210;52.284;9.892;2022-08-25T04:12:20;17.00;;;6.53;;
20101;SDS011;10210;52.284;9.892;2022-08-25T04:14:46;58.93;;;9.40;;
20101;SDS011;10210;52.284;9.892;2022-08-25T04:17:12;21.97;;;6.57;;
20101;SDS011;10210;52.284;9.892;2022-08-25T04:19:38;14.57;;;5.90;;
20101;SDS011;10210;52.284;9.892;2022-08-25T04:22:04;51.80;;;8.73;;
20101;SDS011;10210;52.284;9.892;2022-08-25T04:24:30;20.77;;;6.27;;
20101;SDS011;10210;52.284;9.892;2022-08-25T04:26:57;52.23;;;9.73;;
20101;SDS011;10210;52.284;9.892;2022-08-25T04:29:23;19.77;;;7.23;;
20101;SDS011;10210;52.284;9.892;2022-08-25T04:31:51;14.93;;;7.40;;
20101;SDS011;10210;52.284;9.892;2022-08-25T04:34:20;57.17;;;10.30;;
20101;SDS011;10210;52.284;9.892;2022-08-25T04:36:48;18.97;;;7.80;;
20101;SDS011;10210;52.284;9.892;2022-08-25T04:39:17;25.73;;;8.37;;
20101;SDS011;10210;52.284;9.892;2022-08-25T04:41:45;23.13;;;7.73;;
20101;SDS011;10210;52.284;9.892;2022-08-25T04:44:12;16.97;;;7.43;;
20101;SDS011;10210;52.284;9.892;2022-08-25T04:46:37;16.93;;;7.53;;
20101;SDS011;10210;52.284;9.892;2022-08-25T04:49:03;55.87;;;10.20;;
20101;SDS011;10210;52.284;9.892;2022-08-25T04:51:31;33.47;;;8.03;;
20101;SDS011;10210;52.284;9.892;2022-08-25T04:54:00;53.53;;;9.33;;
20101;SDS011;10210;52.284;9.892;2022-08-25T04:56:31;19.83;;;7.77;;
20101;SDS011;10210;52.284;9.892;2022-08-25T04:59:00;26.83;;;9.23;;
20101;SDS011;10210;52.284;9.892;2022-08-25T05:01:32;55.60;;;9.97;;
20101;SDS011;10210;52.284;9.892;2022-08-25T05:04:00;21.57;;;7.90;;
20101;SDS011;10210;52.284;9.892;2022-08-25T05:06:28;45.63;;;9.03;;
20101;SDS011;10210;52.284;9.892;2022-08-25T05:08:55;36.17;;;9.00;;
20101;SDS011;10210;52.284;9.892;2022-08-25T05:11:22;28.33;;;8.70;;
20101;SDS011;10210;52.284;9.892;2022-08-25T05:13:50;76.37;;;11.90;;
20101;SDS011;10210;52.284;9.892;2022-08-25T05:16:21;18.73;;;7.13;;
20101;SDS011;10210;52.284;9.892;2022-08-25T05:18:49;58.63;;;9.87;;
20101;SDS011;10210;52.284;9.892;2022-08-25T05:21:18;36.10;;;9.43;;
20101;SDS011;10210;52.284;9.892;2022-08-25T05:23:48;48.70;;;9.63;;
20101;SDS011;10210;52.284;9.892;2022-08-25T05:26:19;56.03;;;11.63;;
20101;SDS011;10210;52.284;9.892;2022-08-25T05:28:46;24.57;;;9.53;;
20101;SDS011;10210;52.284;9.892;2022-08-25T05:31:17;46.40;;;10.03;;
20101;SDS011;10210;52.284;9.892;2022-08-25T05:33:45;19.97;;;8.53;;
20101;SDS011;10210;52.284;9.892;2022-08-25T05:36:11;73.33;;;11.43;;
20101;SDS011;10210;52.284;9.892;2022-08-25T05:38:38;20.50;;;8.70;;
20101;SDS011;10210;52.284;9.892;2022-08-25T05:41:06;38.60;;;10.80;;
20101;SDS011;10210;52.284;9.892;2022-08-25T05:43:37;26.00;;;8.50;;
20101;SDS011;10210;52.284;9.892;2022-08-25T05:46:06;16.20;;;8.97;;
20101;SDS011;10210;52.284;9.892;2022-08-25T05:48:33;52.83;;;11.80;;
20101;SDS011;10210;52.284;9.892;2022-08-25T05:51:00;22.27;;;8.70;;
20101;SDS011;10210;52.284;9.892;2022-08-25T05:53:30;70.40;;;11.93;;
20101;SDS011;10210;52.284;9.892;2022-08-25T05:55:57;117.07;;;14.47;;
20101;SDS011;10210;52.284;9.892;2022-08-25T05:58:25;19.43;;;9.77;;
20101;SDS011;10210;52.284;9.892;2022-08-25T06:00:53;18.20;;;9.87;;
20101;SDS011;10210;52.284;9.892;2022-08-25T06:03:20;17.80;;;9.57;;
20101;SDS011;10210;52.284;9.892;2022-08-25T06:05:46;106.23;;;14.77;;
20101;SDS011;10210;52.284;9.892;2022-08-25T06:08:12;23.33;;;10.13;;
20101;SDS011;10210;52.284;9.892;2022-08-25T06:10:39;19.40;;;10.10;;
20101;SDS011;10210;52.284;9.892;2022-08-25T06:13:06;19.10;;;10.27;;
20101;SDS011;10210;52.284;9.892;2022-08-25T06:15:32;19.40;;;9.83;;
20101;SDS011;10210;52.284;9.892;2022-08-25T06:17:58;66.10;;;12.20;;
20101;SDS011;10210;52.284;9.892;2022-08-25T06:20:26;20.13;;;11.23;;
20101;SDS011;10210;52.284;9.892;2022-08-25T06:22:55;122.80;;;17.83;;
20101;SDS011;10210;52.284;9.892;2022-08-25T06:25:22;21.17;;;10.53;;
20101;SDS011;10210;52.284;9.892;2022-08-25T06:27:50;23.77;;;11.30;;
20101;SDS011;10210;52.284;9.892;2022-08-25T06:30:17;179.17;;;18.90;;
20101;SDS011;10210;52.284;9.892;2022-08-25T06:32:46;62.97;;;13.27;;
20101;SDS011;10210;52.284;9.892;2022-08-25T06:35:14;23.20;;;10.80;;
20101;SDS011;10210;52.284;9.892;2022-08-25T06:37:43;18.53;;;10.80;;
20101;SDS011;10210;52.284;9.892;2022-08-25T06:40:10;19.53;;;9.77;;
20101;SDS011;10210;52.284;9.892;2022-08-25T06:42:37;22.60;;;11.30;;
20101;SDS011;10210;52.284;9.892;2022-08-25T06:45:04;17.90;;;10.10;;
20101;SDS011;10210;52.284;9.892;2022-08-25T06:47:31;19.70;;;10.03;;
20101;SDS011;10210;52.284;9.892;2022-08-25T06:49:57;21.43;;;10.50;;
20101;SDS011;10210;52.284;9.892;2022-08-25T06:52:23;18.30;;;10.07;;
20101;SDS011;10210;52.284;9.892;2022-08-25T06:54:49;22.13;;;11.10;;
20101;SDS011;10210;52.284;9.892;2022-08-25T06:57:14;21.77;;;11.10;;
20101;SDS011;10210;52.284;9.892;2022-08-25T06:59:40;22.27;;;11.20;;
20101;SDS011;10210;52.284;9.892;2022-08-25T07:02:07;20.57;;;11.40;;
20101;SDS011;10210;52.284;9.892;2022-08-25T07:04:33;21.77;;;11.73;;
20101;SDS011;10210;52.284;9.892;2022-08-25T07:07:00;20.13;;;10.60;;
20101;SDS011;10210;52.284;9.892;2022-08-25T07:09:26;18.87;;;10.43;;
20101;SDS011;10210;52.284;9.892;2022-08-25T07:11:52;20.37;;;10.33;;
20101;SDS011;10210;52.284;9.892;2022-08-25T07:14:18;19.97;;;11.57;;
20101;SDS011;10210;52.284;9.892;2022-08-25T07:16:44;20.47;;;10.70;;
20101;SDS011;10210;52.284;9.892;2022-08-25T07:19:10;20.87;;;10.87;;
20101;SDS011;10210;52.284;9.892;2022-08-25T07:21:37;20.37;;;11.47;;
20101;SDS011;10210;52.284;9.892;2022-08-25T07:24:07;20.13;;;11.37;;
20101;SDS011;10210;52.284;9.892;2022-08-25T07:26:36;20.73;;;10.73;;
20101;SDS011;10210;52.284;9.892;2022-08-25T07:29:05;20.17;;;11.20;;
20101;SDS011;10210;52.284;9.892;2022-08-25T07:31:38;20.43;;;10.90;;
20101;SDS011;10210;52.284;9.892;2022-08-25T07:34:05;20.80;;;9.70;;
20101;SDS011;10210;52.284;9.892;2022-08-25T07:36:50;17.23;;;9.10;;
20101;SDS011;10210;52.284;9.892;2022-08-25T07:39:19;20.63;;;10.17;;
20101;SDS011;10210;52.284;9.892;2022-08-25T07:41:45;19.90;;;9.57;;
20101;SDS011;10210;52.284;9.892;2022-08-25T07:44:11;17.33;;;8.82;;
20101;SDS011;10210;52.284;9.892;2022-08-25T07:46:37;16.00;;;8.93;;
20101;SDS011;10210;52.284;9.892;2022-08-25T07:49:04;16.38;;;8.90;;
20101;SDS011;10210;52.284;9.892;2022-08-25T07:51:31;19.02;;;9.07;;
20101;SDS011;10210;52.284;9.892;2022-08-25T07:53:57;17.10;;;8.98;;
20101;SDS011;10210;52.284;9.892;2022-08-25T07:56:23;16.25;;;8.77;;
20101;SDS011;10210;52.284;9.892;2022-08-25T07:58:49;18.58;;;8.35;;
20101;SDS011;10210;52.284;9.892;2022-08-25T08:01:24;14.65;;;7.95;;
20101;SDS011;10210;52.284;9.892;2022-08-25T08:03:50;16.73;;;8.20;;
20101;SDS011;10210;52.284;9.892;2022-08-25T08:06:19;14.98;;;7.75;;
20101;SDS011;10210;52.284;9.892;2022-08-25T08:08:48;17.20;;;7.78;;
20101;SDS011;10210;52.284;9.892;2022-08-25T08:11:25;15.50;;;7.82;;
20101;SDS011;10210;52.284;9.892;2022-08-25T08:13:54;16.55;;;8.15;;
20101;SDS011;10210;52.284;9.892;2022-08-25T08:16:23;14.63;;;7.40;;
20101;SDS011;10210;52.284;9.892;2022-08-25T08:18:52;14.93;;;7.75;;
20101;SDS011;10210;52.284;9.892;2022-08-25T08:21:20;15.63;;;7.82;;
20101;SDS011;10210;52.284;9.892;2022-08-25T08:23:56;17.60;;;8.50;;
20101;SDS011;10210;52.284;9.892;2022-08-25T08:26:23;16.67;;;8.32;;
20101;SDS011;10210;52.284;9.892;2022-08-25T08:28:50;17.60;;;7.20;;
20101;SDS011;10210;52.284;9.892;2022-08-25T08:31:18;16.00;;;8.63;;
20101;SDS011;10210;52.284;9.892;2022-08-25T08:33:46;14.80;;;7.38;;
20101;SDS011;10210;52.284;9.892;2022-08-25T08:36:14;14.85;;;7.82;;
20101;SDS011;10210;52.284;9.892;2022-08-25T08:38:40;15.00;;;7.93;;
20101;SDS011;10210;52.284;9.892;2022-08-25T08:44:08;18.33;;;8.15;;
20101;SDS011;10210;52.284;9.892;2022-08-25T08:47:04;16.73;;;7.47;;
20101;SDS011;10210;52.284;9.892;2022-08-25T08:52:43;17.00;;;7.70;;
20101;SDS011;10210;52.284;9.892;2022-08-25T08:55:26;15.68;;;7.00;;
20101;SDS011;10210;52.284;9.892;2022-08-25T08:58:10;15.50;;;6.95;;
20101;SDS011;10210;52.284;9.892;2022-08-25T09:00:48;16.92;;;7.78;;
20101;SDS011;10210;52.284;9.892;2022-08-25T09:03:36;18.05;;;7.63;;
20101;SDS011;10210;52.284;9.892;2022-08-25T09:06:29;17.33;;;7.38;;
20101;SDS011;10210;52.284;9.892;2022-08-25T09:08:58;16.88;;;7.50;;
20101;SDS011;10210;52.284;9.892;2022-08-25T09:11:45;16.00;;;6.90;;
20101;SDS011;10210;52.284;9.892;2022-08-25T09:17:35;19.60;;;7.40;;
20101;SDS011;10210;52.284;9.892;2022-08-25T09:23:32;16.17;;;6.97;;
20101;SDS011;10210;52.284;9.892;2022-08-25T09:26:27;15.38;;;6.82;;
20101;SDS011;10210;52.284;9.892;2022-08-25T09:31:59;13.43;;;5.97;;
20101;SDS011;10210;52.284;9.892;2022-08-25T09:34:29;19.63;;;7.22;;
20101;SDS011;10210;52.284;9.892;2022-08-25T09:36:58;17.55;;;6.18;;
20101;SDS011;10210;52.284;9.892;2022-08-25T09:39:24;15.98;;;6.25;;
20101;SDS011;10210;52.284;9.892;2022-08-25T09:41:55;14.82;;;6.53;;
20101;SDS011;10210;52.284;9.892;2022-08-25T09:44:38;19.40;;;6.80;;
20101;SDS011;10210;52.284;9.892;2022-08-25T09:47:25;15.18;;;5.93;;
20101;SDS011;10210;52.284;9.892;2022-08-25T09:50:00;17.33;;;6.32;;
20101;SDS011;10210;52.284;9.892;2022-08-25T09:52:33;15.90;;;6.57;;
20101;SDS011;10210;52.284;9.892;2022-08-25T10:00:16;14.25;;;6.90;;
20101;SDS011;10210;52.284;9.892;2022-08-25T10:05:28;16.08;;;7.38;;
20101;SDS011;10210;52.284;9.892;2022-08-25T10:07:59;15.57;;;7.22;;
20101;SDS011;10210;52.284;9.892;2022-08-25T10:10:43;16.75;;;7.53;;
20101;SDS011;10210;52.284;9.892;2022-08-25T10:13:19;14.40;;;7.43;;
20101;SDS011;10210;52.284;9.892;2022-08-25T10:15:47;14.93;;;6.93;;
20101;SDS011;10210;52.284;9.892;2022-08-25T10:18:59;16.60;;;7.03;;
20101;SDS011;10210;52.284;9.892;2022-08-25T10:22:03;16.92;;;7.75;;
20101;SDS011;10210;52.284;9.892;2022-08-25T10:24:45;17.25;;;6.88;;
20101;SDS011;10210;52.284;9.892;2022-08-25T10:27:17;13.77;;;6.53;;
20101;SDS011;10210;52.284;9.892;2022-08-25T10:30:16;19.30;;;7.72;;
20101;SDS011;10210;52.284;9.892;2022-08-25T10:35:51;16.15;;;7.00;;
20101;SDS011;10210;52.284;9.892;2022-08-25T10:44:02;17.08;;;7.30;;
20101;SDS011;10210;52.284;9.892;2022-08-25T10:47:07;17.15;;;7.43;;
20101;SDS011;10210;52.284;9.892;2022-08-25T10:50:17;13.40;;;6.68;;
20101;SDS011;10210;52.284;9.892;2022-08-25T10:52:56;17.02;;;7.93;;
20101;SDS011;10210;52.284;9.892;2022-08-25T11:04:45;16.95;;;6.97;;
20101;SDS011;10210;52.284;9.892;2022-08-25T11:07:30;14.70;;;6.57;;
20101;SDS011;10210;52.284;9.892;2022-08-25T11:10:07;16.40;;;6.57;;
20101;SDS011;10210;52.284;9.892;2022-08-25T11:12:44;13.55;;;6.13;;
20101;SDS011;10210;52.284;9.892;2022-08-25T11:15:25;17.40;;;7.65;;
20101;SDS011;10210;52.284;9.892;2022-08-25T11:18:04;16.73;;;7.32;;
20101;SDS011;10210;52.284;9.892;2022-08-25T11:20:45;15.07;;;6.65;;
20101;SDS011;10210;52.284;9.892;2022-08-25T11:23:37;13.40;;;6.28;;
20101;SDS011;10210;52.284;9.892;2022-08-25T11:26:14;14.35;;;6.30;;
20101;SDS011;10210;52.284;9.892;2022-08-25T11:29:00;16.85;;;6.40;;
20101;SDS011;10210;52.284;9.892;2022-08-25T11:31:41;16.83;;;7.10;;
20101;SDS011;10210;52.284;9.892;2022-08-25T11:34:11;16.08;;;5.88;;
20101;SDS011;10210;52.284;9.892;2022-08-25T11:36:39;14.05;;;6.60;;
20101;SDS011;10210;52.284;9.892;2022-08-25T11:39:16;16.75;;;6.50;;
20101;SDS011;10210;52.284;9.892;2022-08-25T11:45:26;17.23;;;6.70;;
20101;SDS011;10210;52.284;9.892;2022-08-25T11:51:12;18.90;;;6.60;;
20101;SDS011;10210;52.284;9.892;2022-08-25T11:56:59;15.05;;;6.03;;
20101;SDS011;10210;52.284;9.892;2022-08-25T12:02:27;81.63;;;10.50;;
20101;SDS011;10210;52.284;9.892;2022-08-25T12:05:04;13.95;;;5.88;;
20101;SDS011;10210;52.284;9.892;2022-08-25T12:10:53;16.08;;;6.10;;
20101;SDS011;10210;52.284;9.892;2022-08-25T12:13:43;17.15;;;6.25;;
20101;SDS011;10210;52.284;9.892;2022-08-25T12:33:23;14.30;;;6.20;;
20101;SDS011;10210;52.284;9.892;2022-08-25T12:36:29;16.45;;;5.88;;
20101;SDS011;10210;52.284;9.892;2022-08-25T12:39:08;14.70;;;6.68;;
20101;SDS011;10210;52.284;9.892;2022-08-25T12:41:52;15.82;;;6.15;;
20101;SDS011;10210;52.284;9.892;2022-08-25T12:44:33;14.02;;;5.95;;
20101;SDS011;10210;52.284;9.892;2022-08-25T12:49:53;14.48;;;5.63;;
20101;SDS011;10210;52.284;9.892;2022-08-25T12:55:50;17.52;;;6.05;;
20101;SDS011;10210;52.284;9.892;2022-08-25T12:58:54;12.90;;;5.35;;
20101;SDS011;10210;52.284;9.892;2022-08-25T13:15:41;13.13;;;5.10;;
20101;SDS011;10210;52.284;9.892;2022-08-25T13:18:29;12.63;;;5.13;;
20101;SDS011;10210;52.284;9.892;2022-08-25T13:21:02;15.95;;;5.80;;
20101;SDS011;10210;52.284;9.892;2022-08-25T13:23:42;14.18;;;5.13;;
20101;SDS011;10210;52.284;9.892;2022-08-25T13:26:23;15.23;;;5.28;;
20101;SDS011;10210;52.284;9.892;2022-08-25T13:28:57;14.77;;;5.15;;
20101;SDS011;10210;52.284;9.892;2022-08-25T13:31:28;11.60;;;4.82;;
20101;SDS011;10210;52.284;9.892;2022-08-25T13:33:58;14.20;;;5.07;;
20101;SDS011;10210;52.284;9.892;2022-08-25T13:36:29;13.95;;;4.72;;
20101;SDS011;10210;52.284;9.892;2022-08-25T13:39:25;14.18;;;4.93;;
20101;SDS011;10210;52.284;9.892;2022-08-25T13:41:54;13.95;;;5.00;;
20101;SDS011;10210;52.284;9.892;2022-08-25T13:44:22;12.82;;;4.78;;
20101;SDS011;10210;52.284;9.892;2022-08-25T13:47:04;14.52;;;5.30;;
20101;SDS011;10210;52.284;9.892;2022-08-25T13:49:54;18.20;;;5.47;;
20101;SDS011;10210;52.284;9.892;2022-08-25T13:55:56;13.45;;;4.88;;
20101;SDS011;10210;52.284;9.892;2022-08-25T13:58:28;10.63;;;4.57;;
20101;SDS011;10210;52.284;9.892;2022-08-25T14:01:07;13.40;;;5.00;;
20101;SDS011;10210;52.284;9.892;2022-08-25T14:03:37;11.85;;;4.70;;
20101;SDS011;10210;52.284;9.892;2022-08-25T14:06:08;11.95;;;4.78;;
20101;SDS011;10210;52.284;9.892;2022-08-25T14:08:38;13.00;;;4.45;;
20101;SDS011;10210;52.284;9.892;2022-08-25T14:14:06;13.50;;;5.00;;
20101;SDS011;10210;52.284;9.892;2022-08-25T14:16:59;13.05;;;5.00;;
20101;SDS011;10210;52.284;9.892;2022-08-25T14:19:33;12.57;;;5.00;;
20101;SDS011;10210;52.284;9.892;2022-08-25T14:22:08;12.80;;;5.43;;
20101;SDS011;10210;52.284;9.892;2022-08-25T14:24:37;12.13;;;4.68;;
20101;SDS011;10210;52.284;9.892;2022-08-25T14:27:04;12.13;;;4.80;;
20101;SDS011;10210;52.284;9.892;2022-08-25T14:29:30;14.68;;;4.75;;
20101;SDS011;10210;52.284;9.892;2022-08-25T14:31:56;13.05;;;4.65;;
20101;SDS011;10210;52.284;9.892;2022-08-25T14:34:24;12.18;;;4.85;;
20101;SDS011;10210;52.284;9.892;2022-08-25T14:36:56;16.25;;;5.90;;
20101;SDS011;10210;52.284;9.892;2022-08-25T14:39:24;10.73;;;4.50;;
20101;SDS011;10210;52.284;9.892;2022-08-25T14:41:50;13.13;;;5.10;;
20101;SDS011;10210;52.284;9.892;2022-08-25T14:44:18;11.02;;;4.32;;
20101;SDS011;10210;52.284;9.892;2022-08-25T14:47:02;13.88;;;5.28;;
20101;SDS011;10210;52.284;9.892;2022-08-25T14:49:33;13.05;;;4.70;;
20101;SDS011;10210;52.284;9.892;2022-08-25T14:52:23;12.70;;;4.60;;
20101;SDS011;10210;52.284;9.892;2022-08-25T14:54:54;13.50;;;5.28;;
20101;SDS011;10210;52.284;9.892;2022-08-25T14:57:23;15.68;;;5.38;;
20101;SDS011;10210;52.284;9.892;2022-08-25T14:59:50;12.70;;;5.13;;
20101;SDS011;10210;52.284;9.892;2022-08-25T15:02:19;12.88;;;5.30;;
20101;SDS011;10210;52.284;9.892;2022-08-25T15:04:51;17.08;;;5.63;;
20101;SDS011;10210;52.284;9.892;2022-08-25T15:07:21;12.98;;;4.80;;
20101;SDS011;10210;52.284;9.892;2022-08-25T15:10:07;14.45;;;5.25;;
20101;SDS011;10210;52.284;9.892;2022-08-25T15:12:36;12.30;;;5.15;;
20101;SDS011;10210;52.284;9.892;2022-08-25T15:15:02;13.15;;;5.07;;
20101;SDS011;10210;52.284;9.892;2022-08-25T15:17:28;13.18;;;4.82;;
20101;SDS011;10210;52.284;9.892;2022-08-25T15:19:54;17.65;;;5.35;;
20101;SDS011;10210;52.284;9.892;2022-08-25T15:22:21;13.68;;;5.10;;
20101;SDS011;10210;52.284;9.892;2022-08-25T15:24:47;14.30;;;4.75;;
20101;SDS011;10210;52.284;9.892;2022-08-25T15:27:13;13.27;;;4.80;;
20101;SDS011;10210;52.284;9.892;2022-08-25T15:29:42;14.10;;;4.80;;
20101;SDS011;10210;52.284;9.892;2022-08-25T15:32:08;15.60;;;5.65;;
20101;SDS011;10210;52.284;9.892;2022-08-25T15:34:34;13.73;;;5.05;;
20101;SDS011;10210;52.284;9.892;2022-08-25T15:37:08;15.57;;;5.30;;
20101;SDS011;10210;52.284;9.892;2022-08-25T15:39:38;12.88;;;5.15;;
20101;SDS011;10210;52.284;9.892;2022-08-25T15:42:05;15.60;;;5.15;;
20101;SDS011;10210;52.284;9.892;2022-08-25T15:44:31;12.02;;;5.03;;
20101;SDS011;10210;52.284;9.892;2022-08-25T15:46:58;13.80;;;5.18;;
20101;SDS011;10210;52.284;9.892;2022-08-25T15:49:24;15.80;;;5.72;;
20101;SDS011;10210;52.284;9.892;2022-08-25T15:51:52;14.30;;;5.00;;
20101;SDS011;10210;52.284;9.892;2022-08-25T15:54:19;13.82;;;5.15;;
20101;SDS011;10210;52.284;9.892;2022-08-25T15:56:47;13.85;;;5.30;;
20101;SDS011;10210;52.284;9.892;2022-08-25T15:59:13;13.05;;;5.38;;
20101;SDS011;10210;52.284;9.892;2022-08-25T16:01:39;11.40;;;4.80;;
20101;SDS011;10210;52.284;9.892;2022-08-25T16:04:06;13.95;;;5.57;;
20101;SDS011;10210;52.284;9.892;2022-08-25T16:06:32;12.95;;;5.13;;
20101;SDS011;10210;52.284;9.892;2022-08-25T16:08:59;12.23;;;4.90;;
20101;SDS011;10210;52.284;9.892;2022-08-25T16:11:26;11.85;;;4.97;;
20101;SDS011;10210;52.284;9.892;2022-08-25T16:13:54;13.48;;;5.57;;
20101;SDS011;10210;52.284;9.892;2022-08-25T16:16:22;16.45;;;5.30;;
20101;SDS011;10210;52.284;9.892;2022-08-25T16:18:50;10.73;;;4.93;;
20101;SDS011;10210;52.284;9.892;2022-08-25T16:21:22;13.52;;;5.35;;
20101;SDS011;10210;52.284;9.892;2022-08-25T16:23:56;12.27;;;5.00;;
20101;SDS011;10210;52.284;9.892;2022-08-25T16:26:24;15.15;;;4.90;;
20101;SDS011;10210;52.284;9.892;2022-08-25T16:28:51;14.32;;;5.22;;
20101;SDS011;10210;52.284;9.892;2022-08-25T16:31:19;14.05;;;5.55;;
20101;SDS011;10210;52.284;9.892;2022-08-25T16:33:46;16.50;;;5.47;;
20101;SDS011;10210;52.284;9.892;2022-08-25T16:36:13;14.13;;;5.40;;
20101;SDS011;10210;52.284;9.892;2022-08-25T16:38:47;14.07;;;5.32;;
20101;SDS011;10210;52.284;9.892;2022-08-25T16:41:15;15.38;;;5.03;;